sensor_id;sensor_type;location;lat;lon;timestamp;P1;durP1;ratioP1;P2;durP2;ratioP2
20649;SDS011;10484;48.736;9.332;2022-09-09T00:04:09;2.70;;;1.07;;
20649;SDS011;10484;48.736;9.332;2022-09-09T00:09:18;4.80;;;1.90;;
20649;SDS011;10484;48.736;9.332;2022-09-09T00:11:58;3.43;;;1.50;;
20649;SDS011;10484;48.736;9.332;2022-09-09T00:17:09;3.60;;;1.70;;
20649;SDS011;10484;48.736;9.332;2022-09-09T00:19:47;2.97;;;1.90;;
20649;SDS011;10484;48.736;9.332;2022-09-09T00:22:21;5.47;;;1.50;;
20649;SDS011;10484;48.736;9.332;2022-09-09T00:25:22;4.50;;;1.43;;
20649;SDS011;10484;48.736;9.332;2022-09-09T00:27:45;5.20;;;1.27;;
20649;SDS011;10484;48.736;9.332;2022-09-09T00:30:26;2.47;;;1.47;;
20649;SDS011;10484;48.736;9.332;2022-09-09T00:33:00;1.90;;;1.00;;
20649;SDS011;10484;48.736;9.332;2022-09-09T00:35:39;3.63;;;1.77;;
20649;SDS011;10484;48.736;9.332;2022-09-09T00:38:19;4.60;;;1.30;;
20649;SDS011;10484;48.736;9.332;2022-09-09T00:40:53;1.87;;;1.50;;
20649;SDS011;10484;48.736;9.332;2022-09-09T00:43:30;2.40;;;1.77;;
20649;SDS011;10484;48.736;9.332;2022-09-09T00:46:10;10.20;;;2.40;;
20649;SDS011;10484;48.736;9.332;2022-09-09T00:51:37;3.23;;;1.23;;
20649;SDS011;10484;48.736;9.332;2022-09-09T00:56:41;2.47;;;1.50;;
20649;SDS011;10484;48.736;9.332;2022-09-09T01:02:13;3.10;;;1.40;;
20649;SDS011;10484;48.736;9.332;2022-09-09T01:05:05;4.53;;;1.50;;
20649;SDS011;10484;48.736;9.332;2022-09-09T01:07:38;3.77;;;1.87;;
20649;SDS011;10484;48.736;9.332;2022-09-09T01:10:15;7.17;;;1.63;;
20649;SDS011;10484;48.736;9.332;2022-09-09T01:12:52;3.63;;;1.80;;
20649;SDS011;10484;48.736;9.332;2022-09-09T01:15:22;7.33;;;1.90;;
20649;SDS011;10484;48.736;9.332;2022-09-09T01:20:23;4.10;;;1.40;;
20649;SDS011;10484;48.736;9.332;2022-09-09T01:28:32;1.70;;;1.60;;
20649;SDS011;10484;48.736;9.332;2022-09-09T01:31:00;3.90;;;1.50;;
20649;SDS011;10484;48.736;9.332;2022-09-09T01:33:31;4.93;;;2.03;;
20649;SDS011;10484;48.736;9.332;2022-09-09T01:35:59;3.10;;;1.63;;
20649;SDS011;10484;48.736;9.332;2022-09-09T01:38:38;3.87;;;1.23;;
20649;SDS011;10484;48.736;9.332;2022-09-09T01:41:04;5.40;;;1.53;;
20649;SDS011;10484;48.736;9.332;2022-09-09T01:43:30;2.90;;;1.40;;
20649;SDS011;10484;48.736;9.332;2022-09-09T01:45:58;3.50;;;1.60;;
20649;SDS011;10484;48.736;9.332;2022-09-09T01:48:25;2.60;;;1.20;;
20649;SDS011;10484;48.736;9.332;2022-09-09T01:50:52;3.20;;;1.50;;
20649;SDS011;10484;48.736;9.332;2022-09-09T01:53:18;3.03;;;1.70;;
20649;SDS011;10484;48.736;9.332;2022-09-09T02:01:23;2.73;;;1.30;;
20649;SDS011;10484;48.736;9.332;2022-09-09T02:03:54;4.60;;;2.20;;
20649;SDS011;10484;48.736;9.332;2022-09-09T02:06:25;5.10;;;1.30;;
20649;SDS011;10484;48.736;9.332;2022-09-09T02:09:06;4.40;;;1.73;;
20649;SDS011;10484;48.736;9.332;2022-09-09T02:11:35;2.20;;;1.23;;
20649;SDS011;10484;48.736;9.332;2022-09-09T02:14:23;10.10;;;2.07;;
20649;SDS011;10484;48.736;9.332;2022-09-09T02:16:51;3.40;;;1.30;;
20649;SDS011;10484;48.736;9.332;2022-09-09T02:21:51;2.90;;;1.60;;
20649;SDS011;10484;48.736;9.332;2022-09-09T02:24:19;4.60;;;1.57;;
20649;SDS011;10484;48.736;9.332;2022-09-09T02:26:46;2.67;;;1.60;;
20649;SDS011;10484;48.736;9.332;2022-09-09T02:29:19;6.77;;;1.83;;
20649;SDS011;10484;48.736;9.332;2022-09-09T02:31:56;5.33;;;1.13;;
20649;SDS011;10484;48.736;9.332;2022-09-09T02:34:27;1.57;;;1.47;;
20649;SDS011;10484;48.736;9.332;2022-09-09T02:36:54;2.70;;;1.40;;
20649;SDS011;10484;48.736;9.332;2022-09-09T02:39:24;4.70;;;2.20;;
20649;SDS011;10484;48.736;9.332;2022-09-09T02:41:50;5.27;;;1.50;;
20649;SDS011;10484;48.736;9.332;2022-09-09T02:44:17;1.93;;;1.77;;
20649;SDS011;10484;48.736;9.332;2022-09-09T02:49:27;3.70;;;1.70;;
20649;SDS011;10484;48.736;9.332;2022-09-09T02:52:07;2.47;;;1.40;;
20649;SDS011;10484;48.736;9.332;2022-09-09T02:54:34;3.93;;;1.33;;
20649;SDS011;10484;48.736;9.332;2022-09-09T02:57:06;4.50;;;1.57;;
20649;SDS011;10484;48.736;9.332;2022-09-09T02:59:48;2.40;;;1.40;;
20649;SDS011;10484;48.736;9.332;2022-09-09T03:02:15;2.30;;;1.33;;
20649;SDS011;10484;48.736;9.332;2022-09-09T03:04:41;3.07;;;1.60;;
20649;SDS011;10484;48.736;9.332;2022-09-09T03:07:09;3.97;;;1.30;;
20649;SDS011;10484;48.736;9.332;2022-09-09T03:09:35;3.77;;;1.40;;
20649;SDS011;10484;48.736;9.332;2022-09-09T03:12:02;4.20;;;1.40;;
20649;SDS011;10484;48.736;9.332;2022-09-09T03:14:29;4.23;;;1.50;;
20649;SDS011;10484;48.736;9.332;2022-09-09T03:16:55;4.93;;;1.80;;
20649;SDS011;10484;48.736;9.332;2022-09-09T03:19:22;3.93;;;1.97;;
20649;SDS011;10484;48.736;9.332;2022-09-09T03:21:48;6.67;;;2.97;;
20649;SDS011;10484;48.736;9.332;2022-09-09T03:24:14;3.30;;;2.63;;
20649;SDS011;10484;48.736;9.332;2022-09-09T03:26:40;9.00;;;3.10;;
20649;SDS011;10484;48.736;9.332;2022-09-09T03:29:09;4.57;;;2.50;;
20649;SDS011;10484;48.736;9.332;2022-09-09T03:31:37;7.97;;;2.60;;
20649;SDS011;10484;48.736;9.332;2022-09-09T03:34:03;5.70;;;2.33;;
20649;SDS011;10484;48.736;9.332;2022-09-09T03:36:29;4.00;;;1.93;;
20649;SDS011;10484;48.736;9.332;2022-09-09T03:38:55;4.00;;;2.20;;
20649;SDS011;10484;48.736;9.332;2022-09-09T03:41:21;5.43;;;2.53;;
20649;SDS011;10484;48.736;9.332;2022-09-09T03:43:48;4.43;;;1.70;;
20649;SDS011;10484;48.736;9.332;2022-09-09T03:46:18;4.80;;;3.00;;
20649;SDS011;10484;48.736;9.332;2022-09-09T03:48:45;2.27;;;1.87;;
20649;SDS011;10484;48.736;9.332;2022-09-09T03:51:11;6.77;;;2.37;;
20649;SDS011;10484;48.736;9.332;2022-09-09T03:53:37;4.87;;;2.47;;
20649;SDS011;10484;48.736;9.332;2022-09-09T03:56:03;5.60;;;2.10;;
20649;SDS011;10484;48.736;9.332;2022-09-09T03:58:31;5.90;;;2.80;;
20649;SDS011;10484;48.736;9.332;2022-09-09T04:01:08;5.33;;;2.57;;
20649;SDS011;10484;48.736;9.332;2022-09-09T04:03:35;6.10;;;2.07;;
20649;SDS011;10484;48.736;9.332;2022-09-09T04:06:02;6.33;;;2.43;;
20649;SDS011;10484;48.736;9.332;2022-09-09T04:08:29;3.80;;;1.93;;
20649;SDS011;10484;48.736;9.332;2022-09-09T04:10:58;6.50;;;2.20;;
20649;SDS011;10484;48.736;9.332;2022-09-09T04:13:24;4.30;;;1.93;;
20649;SDS011;10484;48.736;9.332;2022-09-09T04:15:51;7.57;;;2.23;;
20649;SDS011;10484;48.736;9.332;2022-09-09T04:18:20;6.90;;;1.90;;
20649;SDS011;10484;48.736;9.332;2022-09-09T04:20:47;6.57;;;2.20;;
20649;SDS011;10484;48.736;9.332;2022-09-09T04:23:14;3.83;;;1.90;;
20649;SDS011;10484;48.736;9.332;2022-09-09T04:25:46;1.80;;;1.70;;
20649;SDS011;10484;48.736;9.332;2022-09-09T04:28:14;3.47;;;1.73;;
20649;SDS011;10484;48.736;9.332;2022-09-09T04:30:40;2.27;;;1.53;;
20649;SDS011;10484;48.736;9.332;2022-09-09T04:33:06;4.83;;;2.03;;
20649;SDS011;10484;48.736;9.332;2022-09-09T04:35:33;5.43;;;1.90;;
20649;SDS011;10484;48.736;9.332;2022-09-09T04:37:58;2.53;;;1.60;;
20649;SDS011;10484;48.736;9.332;2022-09-09T04:40:24;1.97;;;1.60;;
20649;SDS011;10484;48.736;9.332;2022-09-09T04:42:50;4.50;;;1.50;;
20649;SDS011;10484;48.736;9.332;2022-09-09T04:45:16;5.73;;;2.50;;
20649;SDS011;10484;48.736;9.332;2022-09-09T04:47:42;4.00;;;2.40;;
20649;SDS011;10484;48.736;9.332;2022-09-09T04:50:08;4.13;;;1.60;;
20649;SDS011;10484;48.736;9.332;2022-09-09T04:52:36;3.20;;;2.53;;
20649;SDS011;10484;48.736;9.332;2022-09-09T04:55:02;8.93;;;1.77;;
20649;SDS011;10484;48.736;9.332;2022-09-09T04:57:28;3.10;;;1.70;;
20649;SDS011;10484;48.736;9.332;2022-09-09T04:59:56;5.90;;;1.93;;
20649;SDS011;10484;48.736;9.332;2022-09-09T05:02:22;11.93;;;2.40;;
20649;SDS011;10484;48.736;9.332;2022-09-09T05:04:48;2.90;;;1.80;;
20649;SDS011;10484;48.736;9.332;2022-09-09T05:07:14;3.23;;;1.37;;
20649;SDS011;10484;48.736;9.332;2022-09-09T05:09:40;2.40;;;1.83;;
20649;SDS011;10484;48.736;9.332;2022-09-09T05:12:06;4.60;;;2.20;;
20649;SDS011;10484;48.736;9.332;2022-09-09T05:14:33;4.13;;;1.97;;
20649;SDS011;10484;48.736;9.332;2022-09-09T05:17:01;2.63;;;1.80;;
20649;SDS011;10484;48.736;9.332;2022-09-09T05:19:27;8.57;;;2.53;;
20649;SDS011;10484;48.736;9.332;2022-09-09T05:21:52;2.80;;;1.60;;
20649;SDS011;10484;48.736;9.332;2022-09-09T05:24:18;1.97;;;1.87;;
20649;SDS011;10484;48.736;9.332;2022-09-09T05:26:43;1.50;;;1.40;;
20649;SDS011;10484;48.736;9.332;2022-09-09T05:29:09;2.50;;;1.53;;
20649;SDS011;10484;48.736;9.332;2022-09-09T05:31:35;3.43;;;1.93;;
20649;SDS011;10484;48.736;9.332;2022-09-09T05:34:01;4.90;;;1.43;;
20649;SDS011;10484;48.736;9.332;2022-09-09T05:36:27;4.20;;;2.00;;
20649;SDS011;10484;48.736;9.332;2022-09-09T05:38:53;5.33;;;2.00;;
20649;SDS011;10484;48.736;9.332;2022-09-09T05:41:18;5.37;;;1.87;;
20649;SDS011;10484;48.736;9.332;2022-09-09T05:43:45;2.67;;;1.87;;
20649;SDS011;10484;48.736;9.332;2022-09-09T05:48:50;4.90;;;2.07;;
20649;SDS011;10484;48.736;9.332;2022-09-09T05:51:17;3.30;;;2.10;;
20649;SDS011;10484;48.736;9.332;2022-09-09T05:53:46;1.90;;;1.73;;
20649;SDS011;10484;48.736;9.332;2022-09-09T05:58:39;3.00;;;2.13;;
20649;SDS011;10484;48.736;9.332;2022-09-09T06:01:12;5.40;;;2.03;;
20649;SDS011;10484;48.736;9.332;2022-09-09T06:03:40;5.83;;;2.23;;
20649;SDS011;10484;48.736;9.332;2022-09-09T06:06:08;4.27;;;2.23;;
20649;SDS011;10484;48.736;9.332;2022-09-09T06:08:39;3.63;;;2.27;;
20649;SDS011;10484;48.736;9.332;2022-09-09T06:11:08;2.97;;;1.87;;
20649;SDS011;10484;48.736;9.332;2022-09-09T06:13:34;4.33;;;2.10;;
20649;SDS011;10484;48.736;9.332;2022-09-09T06:16:02;4.77;;;2.50;;
20649;SDS011;10484;48.736;9.332;2022-09-09T06:18:28;3.67;;;2.10;;
20649;SDS011;10484;48.736;9.332;2022-09-09T06:23:21;4.10;;;2.53;;
20649;SDS011;10484;48.736;9.332;2022-09-09T06:25:46;5.10;;;2.70;;
20649;SDS011;10484;48.736;9.332;2022-09-09T06:28:13;3.83;;;2.80;;
20649;SDS011;10484;48.736;9.332;2022-09-09T06:30:40;4.47;;;2.53;;
20649;SDS011;10484;48.736;9.332;2022-09-09T06:33:06;7.57;;;2.97;;
20649;SDS011;10484;48.736;9.332;2022-09-09T06:35:31;8.53;;;3.10;;
20649;SDS011;10484;48.736;9.332;2022-09-09T06:37:57;6.40;;;2.60;;
20649;SDS011;10484;48.736;9.332;2022-09-09T06:40:23;9.53;;;2.50;;
20649;SDS011;10484;48.736;9.332;2022-09-09T06:42:49;3.80;;;2.53;;
20649;SDS011;10484;48.736;9.332;2022-09-09T06:45:15;5.27;;;2.70;;
20649;SDS011;10484;48.736;9.332;2022-09-09T06:47:41;9.80;;;2.87;;
20649;SDS011;10484;48.736;9.332;2022-09-09T06:50:07;7.70;;;2.17;;
20649;SDS011;10484;48.736;9.332;2022-09-09T06:52:33;4.87;;;2.10;;
20649;SDS011;10484;48.736;9.332;2022-09-09T06:54:59;3.33;;;1.97;;
20649;SDS011;10484;48.736;9.332;2022-09-09T06:57:24;3.70;;;2.33;;
20649;SDS011;10484;48.736;9.332;2022-09-09T06:59:51;3.77;;;1.93;;
20649;SDS011;10484;48.736;9.332;2022-09-09T07:02:16;3.57;;;1.60;;
20649;SDS011;10484;48.736;9.332;2022-09-09T07:04:42;4.70;;;1.90;;
20649;SDS011;10484;48.736;9.332;2022-09-09T07:07:08;4.50;;;1.47;;
20649;SDS011;10484;48.736;9.332;2022-09-09T07:09:34;2.50;;;1.90;;
20649;SDS011;10484;48.736;9.332;2022-09-09T07:12:00;3.13;;;1.60;;
20649;SDS011;10484;48.736;9.332;2022-09-09T07:14:26;6.67;;;2.10;;
20649;SDS011;10484;48.736;9.332;2022-09-09T07:16:52;1.63;;;1.23;;
20649;SDS011;10484;48.736;9.332;2022-09-09T07:19:18;6.67;;;1.70;;
20649;SDS011;10484;48.736;9.332;2022-09-09T07:21:43;6.80;;;2.03;;
20649;SDS011;10484;48.736;9.332;2022-09-09T07:24:10;2.20;;;1.33;;
20649;SDS011;10484;48.736;9.332;2022-09-09T07:26:36;3.20;;;1.20;;
20649;SDS011;10484;48.736;9.332;2022-09-09T07:29:04;2.87;;;1.90;;
20649;SDS011;10484;48.736;9.332;2022-09-09T07:31:31;2.20;;;1.53;;
20649;SDS011;10484;48.736;9.332;2022-09-09T07:33:59;2.30;;;1.70;;
20649;SDS011;10484;48.736;9.332;2022-09-09T07:36:35;7.20;;;1.90;;
20649;SDS011;10484;48.736;9.332;2022-09-09T07:39:04;4.53;;;2.13;;
20649;SDS011;10484;48.736;9.332;2022-09-09T07:41:35;5.97;;;2.33;;
20649;SDS011;10484;48.736;9.332;2022-09-09T07:44:04;3.27;;;1.30;;
20649;SDS011;10484;48.736;9.332;2022-09-09T07:46:35;2.97;;;1.73;;
20649;SDS011;10484;48.736;9.332;2022-09-09T07:49:02;3.10;;;1.53;;
20649;SDS011;10484;48.736;9.332;2022-09-09T07:51:29;3.47;;;2.10;;
20649;SDS011;10484;48.736;9.332;2022-09-09T07:53:57;3.50;;;1.40;;
20649;SDS011;10484;48.736;9.332;2022-09-09T07:56:29;3.83;;;1.83;;
20649;SDS011;10484;48.736;9.332;2022-09-09T07:58:56;2.90;;;2.00;;
20649;SDS011;10484;48.736;9.332;2022-09-09T08:03:55;3.23;;;1.87;;
20649;SDS011;10484;48.736;9.332;2022-09-09T08:06:33;3.63;;;1.70;;
20649;SDS011;10484;48.736;9.332;2022-09-09T08:09:01;4.80;;;2.23;;
20649;SDS011;10484;48.736;9.332;2022-09-09T08:11:28;2.27;;;1.20;;
20649;SDS011;10484;48.736;9.332;2022-09-09T08:13:55;4.63;;;1.57;;
20649;SDS011;10484;48.736;9.332;2022-09-09T08:16:25;5.73;;;1.90;;
20649;SDS011;10484;48.736;9.332;2022-09-09T08:18:52;3.67;;;1.70;;
20649;SDS011;10484;48.736;9.332;2022-09-09T08:21:20;3.90;;;1.90;;
20649;SDS011;10484;48.736;9.332;2022-09-09T08:23:49;2.47;;;1.73;;
20649;SDS011;10484;48.736;9.332;2022-09-09T08:26:18;4.77;;;1.70;;
20649;SDS011;10484;48.736;9.332;2022-09-09T08:28:53;5.90;;;1.80;;
20649;SDS011;10484;48.736;9.332;2022-09-09T08:31:26;2.57;;;1.57;;
20649;SDS011;10484;48.736;9.332;2022-09-09T08:33:59;2.27;;;1.23;;
20649;SDS011;10484;48.736;9.332;2022-09-09T08:36:27;2.53;;;1.30;;
20649;SDS011;10484;48.736;9.332;2022-09-09T08:38:55;5.10;;;1.57;;
20649;SDS011;10484;48.736;9.332;2022-09-09T08:57:53;2.47;;;0.90;;
20649;SDS011;10484;48.736;9.332;2022-09-09T09:00:20;2.43;;;1.10;;
20649;SDS011;10484;48.736;9.332;2022-09-09T09:03:06;1.73;;;1.00;;
20649;SDS011;10484;48.736;9.332;2022-09-09T09:08:44;3.60;;;0.90;;
20649;SDS011;10484;48.736;9.332;2022-09-09T09:11:37;3.07;;;0.70;;
20649;SDS011;10484;48.736;9.332;2022-09-09T09:16:58;3.90;;;1.07;;
20649;SDS011;10484;48.736;9.332;2022-09-09T09:19:34;2.37;;;1.00;;
20649;SDS011;10484;48.736;9.332;2022-09-09T09:22:22;2.50;;;1.10;;
20649;SDS011;10484;48.736;9.332;2022-09-09T09:30:26;3.10;;;1.10;;
20649;SDS011;10484;48.736;9.332;2022-09-09T09:33:02;3.03;;;1.00;;
20649;SDS011;10484;48.736;9.332;2022-09-09T09:35:33;4.10;;;0.93;;
20649;SDS011;10484;48.736;9.332;2022-09-09T09:37:59;5.57;;;1.47;;
20649;SDS011;10484;48.736;9.332;2022-09-09T09:40:26;2.23;;;0.80;;
20649;SDS011;10484;48.736;9.332;2022-09-09T09:42:56;3.07;;;1.10;;
20649;SDS011;10484;48.736;9.332;2022-09-09T09:48:05;2.10;;;0.93;;
20649;SDS011;10484;48.736;9.332;2022-09-09T09:50:33;4.80;;;1.43;;
20649;SDS011;10484;48.736;9.332;2022-09-09T09:53:00;1.70;;;0.60;;
20649;SDS011;10484;48.736;9.332;2022-09-09T09:55:33;1.73;;;0.60;;
20649;SDS011;10484;48.736;9.332;2022-09-09T09:58:06;1.70;;;0.63;;
20649;SDS011;10484;48.736;9.332;2022-09-09T10:00:47;1.33;;;0.70;;
20649;SDS011;10484;48.736;9.332;2022-09-09T10:03:35;1.07;;;0.60;;
20649;SDS011;10484;48.736;9.332;2022-09-09T10:06:06;3.77;;;0.53;;
20649;SDS011;10484;48.736;9.332;2022-09-09T10:08:33;1.53;;;0.47;;
20649;SDS011;10484;48.736;9.332;2022-09-09T10:11:53;2.40;;;0.67;;
20649;SDS011;10484;48.736;9.332;2022-09-09T10:14:24;2.50;;;0.70;;
20649;SDS011;10484;48.736;9.332;2022-09-09T10:17:15;2.87;;;0.87;;
20649;SDS011;10484;48.736;9.332;2022-09-09T10:20:21;1.80;;;0.40;;
20649;SDS011;10484;48.736;9.332;2022-09-09T10:23:07;2.73;;;0.73;;
20649;SDS011;10484;48.736;9.332;2022-09-09T10:31:24;2.10;;;0.70;;
20649;SDS011;10484;48.736;9.332;2022-09-09T10:37:11;3.60;;;0.77;;
20649;SDS011;10484;48.736;9.332;2022-09-09T10:40:50;4.27;;;1.10;;
20649;SDS011;10484;48.736;9.332;2022-09-09T10:42:51;2.47;;;1.20;;
20649;SDS011;10484;48.736;9.332;2022-09-09T10:45:24;2.20;;;0.77;;
20649;SDS011;10484;48.736;9.332;2022-09-09T10:48:18;3.40;;;1.00;;
20649;SDS011;10484;48.736;9.332;2022-09-09T10:51:03;3.63;;;0.93;;
20649;SDS011;10484;48.736;9.332;2022-09-09T10:53:35;2.10;;;1.10;;
20649;SDS011;10484;48.736;9.332;2022-09-09T10:56:11;2.80;;;0.73;;
20649;SDS011;10484;48.736;9.332;2022-09-09T11:01:15;1.90;;;0.97;;
20649;SDS011;10484;48.736;9.332;2022-09-09T11:03:55;4.23;;;0.90;;
20649;SDS011;10484;48.736;9.332;2022-09-09T11:06:37;1.63;;;0.80;;
20649;SDS011;10484;48.736;9.332;2022-09-09T11:09:08;5.93;;;1.00;;
20649;SDS011;10484;48.736;9.332;2022-09-09T11:11:43;2.77;;;1.13;;
20649;SDS011;10484;48.736;9.332;2022-09-09T11:14:19;2.40;;;0.70;;
20649;SDS011;10484;48.736;9.332;2022-09-09T11:17:23;4.13;;;0.97;;
20649;SDS011;10484;48.736;9.332;2022-09-09T11:19:56;2.40;;;1.10;;
20649;SDS011;10484;48.736;9.332;2022-09-09T11:22:32;1.40;;;0.60;;
20649;SDS011;10484;48.736;9.332;2022-09-09T11:25:05;2.97;;;0.90;;
20649;SDS011;10484;48.736;9.332;2022-09-09T11:30:20;1.50;;;0.90;;
20649;SDS011;10484;48.736;9.332;2022-09-09T11:38:42;3.27;;;0.97;;
20649;SDS011;10484;48.736;9.332;2022-09-09T11:41:11;1.27;;;0.50;;
20649;SDS011;10484;48.736;9.332;2022-09-09T11:43:42;3.27;;;0.60;;
20649;SDS011;10484;48.736;9.332;2022-09-09T11:46:19;3.67;;;0.90;;
20649;SDS011;10484;48.736;9.332;2022-09-09T11:49:01;3.67;;;1.30;;
20649;SDS011;10484;48.736;9.332;2022-09-09T11:51:29;2.97;;;1.00;;
20649;SDS011;10484;48.736;9.332;2022-09-09T11:54:01;1.93;;;0.97;;
20649;SDS011;10484;48.736;9.332;2022-09-09T11:56:46;2.00;;;0.93;;
20649;SDS011;10484;48.736;9.332;2022-09-09T11:59:33;3.00;;;1.13;;
20649;SDS011;10484;48.736;9.332;2022-09-09T12:02:22;1.80;;;0.93;;
20649;SDS011;10484;48.736;9.332;2022-09-09T12:05:04;3.30;;;1.00;;
20649;SDS011;10484;48.736;9.332;2022-09-09T12:07:41;3.73;;;0.80;;
20649;SDS011;10484;48.736;9.332;2022-09-09T12:10:30;1.37;;;0.60;;
20649;SDS011;10484;48.736;9.332;2022-09-09T12:13:17;3.20;;;0.40;;
20649;SDS011;10484;48.736;9.332;2022-09-09T12:15:53;1.27;;;0.50;;
20649;SDS011;10484;48.736;9.332;2022-09-09T12:18:42;5.23;;;0.93;;
20649;SDS011;10484;48.736;9.332;2022-09-09T12:24:00;1.43;;;0.50;;
20649;SDS011;10484;48.736;9.332;2022-09-09T12:26:41;0.70;;;0.43;;
20649;SDS011;10484;48.736;9.332;2022-09-09T12:34:41;0.80;;;0.30;;
20649;SDS011;10484;48.736;9.332;2022-09-09T12:40:21;1.47;;;0.30;;
20649;SDS011;10484;48.736;9.332;2022-09-09T12:42:49;0.80;;;0.30;;
20649;SDS011;10484;48.736;9.332;2022-09-09T12:45:16;1.37;;;0.50;;
20649;SDS011;10484;48.736;9.332;2022-09-09T12:47:48;1.70;;;0.50;;
20649;SDS011;10484;48.736;9.332;2022-09-09T12:50:21;1.57;;;0.50;;
20649;SDS011;10484;48.736;9.332;2022-09-09T12:52:55;1.17;;;0.50;;
20649;SDS011;10484;48.736;9.332;2022-09-09T12:55:31;1.63;;;0.60;;
20649;SDS011;10484;48.736;9.332;2022-09-09T12:57:59;0.70;;;0.50;;
20649;SDS011;10484;48.736;9.332;2022-09-09T13:00:29;0.90;;;0.60;;
20649;SDS011;10484;48.736;9.332;2022-09-09T13:03:13;2.70;;;0.83;;
20649;SDS011;10484;48.736;9.332;2022-09-09T13:05:42;1.67;;;0.73;;
20649;SDS011;10484;48.736;9.332;2022-09-09T13:08:11;1.47;;;0.60;;
20649;SDS011;10484;48.736;9.332;2022-09-09T13:10:57;1.03;;;0.60;;
20649;SDS011;10484;48.736;9.332;2022-09-09T13:13:36;1.47;;;0.67;;
20649;SDS011;10484;48.736;9.332;2022-09-09T13:16:04;1.33;;;0.43;;
20649;SDS011;10484;48.736;9.332;2022-09-09T13:18:39;1.50;;;0.50;;
20649;SDS011;10484;48.736;9.332;2022-09-09T13:21:05;2.10;;;0.70;;
20649;SDS011;10484;48.736;9.332;2022-09-09T13:23:35;2.70;;;0.53;;
20649;SDS011;10484;48.736;9.332;2022-09-09T13:28:51;1.43;;;0.50;;
20649;SDS011;10484;48.736;9.332;2022-09-09T13:31:28;2.60;;;0.80;;
20649;SDS011;10484;48.736;9.332;2022-09-09T13:33:56;2.93;;;0.90;;
20649;SDS011;10484;48.736;9.332;2022-09-09T13:36:29;4.80;;;1.00;;
20649;SDS011;10484;48.736;9.332;2022-09-09T13:38:56;2.17;;;0.60;;
20649;SDS011;10484;48.736;9.332;2022-09-09T13:41:32;1.10;;;0.50;;
20649;SDS011;10484;48.736;9.332;2022-09-09T13:44:00;0.73;;;0.67;;
20649;SDS011;10484;48.736;9.332;2022-09-09T13:46:32;1.43;;;0.60;;
20649;SDS011;10484;48.736;9.332;2022-09-09T13:49:22;2.23;;;0.63;;
20649;SDS011;10484;48.736;9.332;2022-09-09T13:51:48;1.63;;;0.40;;
20649;SDS011;10484;48.736;9.332;2022-09-09T13:54:16;0.80;;;0.50;;
20649;SDS011;10484;48.736;9.332;2022-09-09T13:56:43;2.00;;;1.33;;
20649;SDS011;10484;48.736;9.332;2022-09-09T13:59:19;1.53;;;0.80;;
20649;SDS011;10484;48.736;9.332;2022-09-09T14:01:46;2.60;;;0.50;;
20649;SDS011;10484;48.736;9.332;2022-09-09T14:04:12;1.90;;;0.87;;
20649;SDS011;10484;48.736;9.332;2022-09-09T14:06:38;2.97;;;0.50;;
20649;SDS011;10484;48.736;9.332;2022-09-09T14:09:05;1.70;;;0.67;;
20649;SDS011;10484;48.736;9.332;2022-09-09T14:11:32;1.37;;;0.60;;
20649;SDS011;10484;48.736;9.332;2022-09-09T14:13:58;1.53;;;0.90;;
20649;SDS011;10484;48.736;9.332;2022-09-09T14:16:25;2.77;;;0.50;;
20649;SDS011;10484;48.736;9.332;2022-09-09T14:18:52;1.93;;;0.53;;
20649;SDS011;10484;48.736;9.332;2022-09-09T14:21:21;1.63;;;0.57;;
20649;SDS011;10484;48.736;9.332;2022-09-09T14:23:47;5.73;;;0.63;;
20649;SDS011;10484;48.736;9.332;2022-09-09T14:26:13;1.90;;;0.60;;
20649;SDS011;10484;48.736;9.332;2022-09-09T14:28:39;2.13;;;0.67;;
20649;SDS011;10484;48.736;9.332;2022-09-09T14:31:05;5.30;;;0.60;;
20649;SDS011;10484;48.736;9.332;2022-09-09T14:33:31;2.77;;;0.67;;
20649;SDS011;10484;48.736;9.332;2022-09-09T14:35:58;2.00;;;0.60;;
20649;SDS011;10484;48.736;9.332;2022-09-09T14:38:28;2.10;;;0.50;;
20649;SDS011;10484;48.736;9.332;2022-09-09T14:40:55;1.13;;;0.47;;
20649;SDS011;10484;48.736;9.332;2022-09-09T14:43:23;2.30;;;0.47;;
20649;SDS011;10484;48.736;9.332;2022-09-09T14:45:49;1.03;;;0.57;;
20649;SDS011;10484;48.736;9.332;2022-09-09T14:48:16;1.57;;;0.43;;
20649;SDS011;10484;48.736;9.332;2022-09-09T14:50:42;0.77;;;0.40;;
20649;SDS011;10484;48.736;9.332;2022-09-09T14:53:07;1.20;;;0.40;;
20649;SDS011;10484;48.736;9.332;2022-09-09T14:55:35;0.97;;;0.40;;
20649;SDS011;10484;48.736;9.332;2022-09-09T14:58:02;1.40;;;0.50;;
20649;SDS011;10484;48.736;9.332;2022-09-09T15:00:28;1.73;;;0.50;;
20649;SDS011;10484;48.736;9.332;2022-09-09T15:02:54;0.93;;;0.33;;
20649;SDS011;10484;48.736;9.332;2022-09-09T15:05:20;0.60;;;0.40;;
20649;SDS011;10484;48.736;9.332;2022-09-09T15:07:46;1.40;;;0.57;;
20649;SDS011;10484;48.736;9.332;2022-09-09T15:10:13;1.87;;;0.37;;
20649;SDS011;10484;48.736;9.332;2022-09-09T15:12:39;3.03;;;0.60;;
20649;SDS011;10484;48.736;9.332;2022-09-09T15:15:07;1.47;;;0.50;;
20649;SDS011;10484;48.736;9.332;2022-09-09T15:17:33;2.27;;;0.90;;
20649;SDS011;10484;48.736;9.332;2022-09-09T15:20:01;1.70;;;0.43;;
20649;SDS011;10484;48.736;9.332;2022-09-09T15:22:30;0.73;;;0.43;;
20649;SDS011;10484;48.736;9.332;2022-09-09T15:24:56;1.13;;;0.40;;
20649;SDS011;10484;48.736;9.332;2022-09-09T15:27:22;2.13;;;0.73;;
20649;SDS011;10484;48.736;9.332;2022-09-09T15:29:48;1.23;;;0.70;;
20649;SDS011;10484;48.736;9.332;2022-09-09T15:32:15;1.13;;;0.40;;
20649;SDS011;10484;48.736;9.332;2022-09-09T15:34:40;2.17;;;0.60;;
20649;SDS011;10484;48.736;9.332;2022-09-09T15:37:09;1.63;;;0.87;;
20649;SDS011;10484;48.736;9.332;2022-09-09T15:39:36;1.83;;;0.50;;
20649;SDS011;10484;48.736;9.332;2022-09-09T15:42:02;2.67;;;0.50;;
20649;SDS011;10484;48.736;9.332;2022-09-09T15:44:28;1.93;;;0.63;;
20649;SDS011;10484;48.736;9.332;2022-09-09T15:46:53;2.50;;;0.60;;
20649;SDS011;10484;48.736;9.332;2022-09-09T15:49:24;2.20;;;0.53;;
20649;SDS011;10484;48.736;9.332;2022-09-09T15:51:52;1.13;;;0.50;;
20649;SDS011;10484;48.736;9.332;2022-09-09T15:54:19;2.10;;;0.50;;
20649;SDS011;10484;48.736;9.332;2022-09-09T15:56:49;1.90;;;0.70;;
20649;SDS011;10484;48.736;9.332;2022-09-09T15:59:23;1.70;;;0.50;;
20649;SDS011;10484;48.736;9.332;2022-09-09T16:01:49;3.37;;;0.63;;
20649;SDS011;10484;48.736;9.332;2022-09-09T16:04:18;2.60;;;0.60;;
20649;SDS011;10484;48.736;9.332;2022-09-09T16:06:50;1.70;;;0.60;;
20649;SDS011;10484;48.736;9.332;2022-09-09T16:09:17;1.03;;;0.50;;
20649;SDS011;10484;48.736;9.332;2022-09-09T16:11:43;1.90;;;0.60;;
20649;SDS011;10484;48.736;9.332;2022-09-09T16:14:09;3.10;;;0.73;;
20649;SDS011;10484;48.736;9.332;2022-09-09T16:16:35;3.57;;;0.50;;
20649;SDS011;10484;48.736;9.332;2022-09-09T16:19:06;4.70;;;0.70;;
20649;SDS011;10484;48.736;9.332;2022-09-09T16:21:35;1.10;;;0.60;;
20649;SDS011;10484;48.736;9.332;2022-09-09T16:24:03;1.93;;;0.50;;
20649;SDS011;10484;48.736;9.332;2022-09-09T16:26:31;2.37;;;0.53;;
20649;SDS011;10484;48.736;9.332;2022-09-09T16:28:58;1.47;;;0.67;;
20649;SDS011;10484;48.736;9.332;2022-09-09T16:31:25;1.37;;;0.47;;
20649;SDS011;10484;48.736;9.332;2022-09-09T16:33:52;6.03;;;1.47;;
20649;SDS011;10484;48.736;9.332;2022-09-09T16:36:19;2.30;;;0.50;;
20649;SDS011;10484;48.736;9.332;2022-09-09T16:38:48;0.60;;;0.50;;
20649;SDS011;10484;48.736;9.332;2022-09-09T16:41:17;1.10;;;0.70;;
20649;SDS011;10484;48.736;9.332;2022-09-09T16:43:43;2.90;;;0.60;;
20649;SDS011;10484;48.736;9.332;2022-09-09T16:48:43;1.27;;;0.50;;
20649;SDS011;10484;48.736;9.332;2022-09-09T16:51:14;0.80;;;0.40;;
20649;SDS011;10484;48.736;9.332;2022-09-09T16:53:48;1.80;;;0.57;;
20649;SDS011;10484;48.736;9.332;2022-09-09T16:56:16;0.80;;;0.53;;
20649;SDS011;10484;48.736;9.332;2022-09-09T16:58:48;1.33;;;0.43;;
20649;SDS011;10484;48.736;9.332;2022-09-09T17:01:32;1.57;;;0.50;;